sensor_id;sensor_type;location;lat;lon;timestamp;pressure;altitude;pressure_sealevel;temperature;humidity
31239;BME280;17871;31.584;74.450;2023-05-09T00:01:41;98139.63;;;24.60;61.80
31239;BME280;17871;31.584;74.450;2023-05-09T00:04:11;98146.94;;;24.53;62.23
31239;BME280;17871;31.584;74.450;2023-05-09T00:06:41;98155.03;;;24.49;62.58
31239;BME280;17871;31.584;74.450;2023-05-09T00:09:10;98156.09;;;24.45;63.18
31239;BME280;17871;31.584;74.450;2023-05-09T00:11:40;98151.78;;;24.44;62.81
31239;BME280;17871;31.584;74.450;2023-05-09T00:14:09;98147.50;;;24.43;62.66
31239;BME280;17871;31.584;74.450;2023-05-09T00:16:41;98155.66;;;24.37;62.46
31239;BME280;17871;31.584;74.450;2023-05-09T00:19:10;98151.59;;;24.31;63.19
31239;BME280;17871;31.584;74.450;2023-05-09T00:21:40;98153.78;;;24.23;62.94
31239;BME280;17871;31.584;74.450;2023-05-09T00:24:09;98156.97;;;24.28;63.10
31239;BME280;17871;31.584;74.450;2023-05-09T00:26:39;98162.03;;;24.31;63.15
31239;BME280;17871;31.584;74.450;2023-05-09T00:29:08;98155.81;;;24.34;63.22
31239;BME280;17871;31.584;74.450;2023-05-09T00:31:37;98161.13;;;24.32;63.24
31239;BME280;17871;31.584;74.450;2023-05-09T00:34:06;98155.25;;;24.44;62.29
31239;BME280;17871;31.584;74.450;2023-05-09T00:36:35;98157.66;;;24.32;61.03
31239;BME280;17871;31.584;74.450;2023-05-09T00:39:04;98166.31;;;24.49;61.05
31239;BME280;17871;31.584;74.450;2023-05-09T00:41:33;98164.91;;;24.59;60.31
31239;BME280;17871;31.584;74.450;2023-05-09T00:44:02;98162.19;;;24.61;60.84
31239;BME280;17871;31.584;74.450;2023-05-09T00:46:31;98166.34;;;24.65;59.86
31239;BME280;17871;31.584;74.450;2023-05-09T00:49:01;98169.03;;;24.63;57.62
31239;BME280;17871;31.584;74.450;2023-05-09T00:51:30;98166.88;;;24.71;56.50
31239;BME280;17871;31.584;74.450;2023-05-09T00:54:00;98177.84;;;24.78;56.94
31239;BME280;17871;31.584;74.450;2023-05-09T00:56:30;98168.03;;;24.66;55.58
31239;BME280;17871;31.584;74.450;2023-05-09T00:58:59;98175.41;;;24.42;55.17
31239;BME280;17871;31.584;74.450;2023-05-09T01:01:28;98176.78;;;24.65;54.69
31239;BME280;17871;31.584;74.450;2023-05-09T01:03:59;98178.41;;;24.67;54.08
31239;BME280;17871;31.584;74.450;2023-05-09T01:09:31;98197.13;;;25.08;53.41
31239;BME280;17871;31.584;74.450;2023-05-09T01:15:10;98202.19;;;25.11;53.12
31239;BME280;17871;31.584;74.450;2023-05-09T01:17:58;98205.72;;;25.10;53.50
31239;BME280;17871;31.584;74.450;2023-05-09T01:20:38;98210.09;;;25.10;53.38
31239;BME280;17871;31.584;74.450;2023-05-09T01:26:06;98215.44;;;25.24;52.64
31239;BME280;17871;31.584;74.450;2023-05-09T01:31:40;98229.38;;;25.24;52.50
31239;BME280;17871;31.584;74.450;2023-05-09T01:34:11;98233.91;;;25.21;52.54
31239;BME280;17871;31.584;74.450;2023-05-09T01:36:43;98234.59;;;25.24;52.69
31239;BME280;17871;31.584;74.450;2023-05-09T01:39:16;98238.81;;;25.27;52.26
31239;BME280;17871;31.584;74.450;2023-05-09T01:45:47;98245.25;;;25.53;51.67
31239;BME280;17871;31.584;74.450;2023-05-09T01:48:17;98247.03;;;25.52;51.46
31239;BME280;17871;31.584;74.450;2023-05-09T01:50:46;98245.41;;;25.65;51.27
31239;BME280;17871;31.584;74.450;2023-05-09T01:53:16;98251.84;;;25.60;50.69
31239;BME280;17871;31.584;74.450;2023-05-09T01:55:47;98251.31;;;25.85;51.34
31239;BME280;17871;31.584;74.450;2023-05-09T01:58:19;98260.41;;;25.93;50.83
31239;BME280;17871;31.584;74.450;2023-05-09T02:00:49;98255.69;;;26.00;51.55
31239;BME280;17871;31.584;74.450;2023-05-09T02:03:21;98260.38;;;26.09;51.41
31239;BME280;17871;31.584;74.450;2023-05-09T02:05:52;98257.00;;;26.07;50.95
31239;BME280;17871;31.584;74.450;2023-05-09T02:08:24;98264.28;;;26.17;50.11
31239;BME280;17871;31.584;74.450;2023-05-09T02:10:54;98273.63;;;26.21;49.46
31239;BME280;17871;31.584;74.450;2023-05-09T02:13:24;98273.38;;;26.26;49.80
31239;BME280;17871;31.584;74.450;2023-05-09T02:15:54;98279.78;;;26.36;48.67
31239;BME280;17871;31.584;74.450;2023-05-09T02:18:24;98275.91;;;26.57;49.07
31239;BME280;17871;31.584;74.450;2023-05-09T02:20:54;98270.19;;;26.65;47.72
31239;BME280;17871;31.584;74.450;2023-05-09T02:23:23;98285.91;;;26.65;47.19
31239;BME280;17871;31.584;74.450;2023-05-09T02:25:52;98280.00;;;26.61;46.68
31239;BME280;17871;31.584;74.450;2023-05-09T02:28:22;98285.88;;;26.80;46.85
31239;BME280;17871;31.584;74.450;2023-05-09T02:30:55;98293.59;;;26.84;46.17
31239;BME280;17871;31.584;74.450;2023-05-09T02:33:26;98295.06;;;27.02;45.70
31239;BME280;17871;31.584;74.450;2023-05-09T02:35:56;98302.56;;;27.08;45.85
31239;BME280;17871;31.584;74.450;2023-05-09T02:38:26;98295.34;;;27.11;46.44
31239;BME280;17871;31.584;74.450;2023-05-09T02:40:54;98303.69;;;27.32;46.23
31239;BME280;17871;31.584;74.450;2023-05-09T02:43:26;98301.81;;;27.34;45.91
31239;BME280;17871;31.584;74.450;2023-05-09T02:45:55;98301.84;;;27.20;45.79
31239;BME280;17871;31.584;74.450;2023-05-09T02:48:24;98309.78;;;27.32;44.88
31239;BME280;17871;31.584;74.450;2023-05-09T02:50:53;98313.94;;;27.37;45.10
31239;BME280;17871;31.584;74.450;2023-05-09T02:53:24;98303.13;;;27.55;44.89
31239;BME280;17871;31.584;74.450;2023-05-09T02:55:55;98313.25;;;27.47;43.77
31239;BME280;17871;31.584;74.450;2023-05-09T02:58:24;98315.09;;;27.73;44.58
31239;BME280;17871;31.584;74.450;2023-05-09T03:00:58;98319.19;;;27.92;44.39
31239;BME280;17871;31.584;74.450;2023-05-09T03:03:28;98322.75;;;27.91;43.44
31239;BME280;17871;31.584;74.450;2023-05-09T03:05:58;98324.75;;;27.73;43.08
31239;BME280;17871;31.584;74.450;2023-05-09T03:08:28;98338.72;;;27.88;43.94
31239;BME280;17871;31.584;74.450;2023-05-09T03:10:57;98329.44;;;27.82;44.01
31239;BME280;17871;31.584;74.450;2023-05-09T03:13:28;98330.94;;;28.13;44.01
31239;BME280;17871;31.584;74.450;2023-05-09T03:15:58;98331.31;;;28.21;43.67
31239;BME280;17871;31.584;74.450;2023-05-09T03:18:28;98334.53;;;28.12;43.42
31239;BME280;17871;31.584;74.450;2023-05-09T03:20:57;98328.44;;;28.38;43.93
31239;BME280;17871;31.584;74.450;2023-05-09T03:23:26;98331.47;;;28.71;44.73
31239;BME280;17871;31.584;74.450;2023-05-09T03:25:56;98339.81;;;28.78;45.37
31239;BME280;17871;31.584;74.450;2023-05-09T03:28:28;98337.19;;;28.91;45.00
31239;BME280;17871;31.584;74.450;2023-05-09T03:31:02;98333.81;;;29.01;45.01
31239;BME280;17871;31.584;74.450;2023-05-09T03:33:32;98341.38;;;29.06;44.40
31239;BME280;17871;31.584;74.450;2023-05-09T03:36:01;98343.06;;;28.81;41.60
31239;BME280;17871;31.584;74.450;2023-05-09T03:38:30;98354.22;;;28.98;42.59
31239;BME280;17871;31.584;74.450;2023-05-09T03:40:59;98349.38;;;28.92;43.56
31239;BME280;17871;31.584;74.450;2023-05-09T03:43:30;98342.66;;;29.13;44.40
31239;BME280;17871;31.584;74.450;2023-05-09T03:45:59;98343.91;;;29.45;43.94
31239;BME280;17871;31.584;74.450;2023-05-09T03:48:28;98345.38;;;29.49;44.03
31239;BME280;17871;31.584;74.450;2023-05-09T03:50:58;98344.72;;;29.58;44.08
31239;BME280;17871;31.584;74.450;2023-05-09T03:53:28;98357.66;;;29.87;44.47
31239;BME280;17871;31.584;74.450;2023-05-09T03:55:57;98363.66;;;29.89;42.20
31239;BME280;17871;31.584;74.450;2023-05-09T03:58:29;98359.69;;;29.83;41.25
31239;BME280;17871;31.584;74.450;2023-05-09T04:00:59;98358.94;;;29.68;41.80
31239;BME280;17871;31.584;74.450;2023-05-09T04:03:28;98363.38;;;30.04;41.55
31239;BME280;17871;31.584;74.450;2023-05-09T04:05:58;98355.00;;;29.99;41.09
31239;BME280;17871;31.584;74.450;2023-05-09T04:08:32;98365.03;;;30.18;41.57
31239;BME280;17871;31.584;74.450;2023-05-09T04:11:03;98363.69;;;30.12;40.40
31239;BME280;17871;31.584;74.450;2023-05-09T04:13:33;98363.28;;;30.42;40.97
31239;BME280;17871;31.584;74.450;2023-05-09T04:16:10;98363.13;;;30.67;40.58
31239;BME280;17871;31.584;74.450;2023-05-09T04:18:39;98358.13;;;30.86;39.96
31239;BME280;17871;31.584;74.450;2023-05-09T04:21:09;98362.31;;;31.02;39.56
31239;BME280;17871;31.584;74.450;2023-05-09T04:23:39;98364.22;;;31.11;38.90
31239;BME280;17871;31.584;74.450;2023-05-09T04:26:12;98362.53;;;31.10;38.83
31239;BME280;17871;31.584;74.450;2023-05-09T04:28:44;98354.97;;;31.05;38.00
31239;BME280;17871;31.584;74.450;2023-05-09T04:31:17;98353.31;;;31.15;37.39
31239;BME280;17871;31.584;74.450;2023-05-09T04:33:49;98359.22;;;31.63;38.71
31239;BME280;17871;31.584;74.450;2023-05-09T04:36:20;98355.16;;;31.70;38.24
31239;BME280;17871;31.584;74.450;2023-05-09T04:38:49;98357.03;;;31.91;37.56
31239;BME280;17871;31.584;74.450;2023-05-09T04:41:23;98355.84;;;31.72;35.91
31239;BME280;17871;31.584;74.450;2023-05-09T04:43:53;98352.97;;;31.75;37.36
31239;BME280;17871;31.584;74.450;2023-05-09T04:46:24;98356.84;;;32.25;36.61
31239;BME280;17871;31.584;74.450;2023-05-09T04:48:54;98352.41;;;32.26;36.92
31239;BME280;17871;31.584;74.450;2023-05-09T04:51:23;98356.19;;;32.44;37.28
31239;BME280;17871;31.584;74.450;2023-05-09T04:53:52;98353.28;;;32.58;36.55
31239;BME280;17871;31.584;74.450;2023-05-09T04:56:26;98349.41;;;32.62;36.42
31239;BME280;17871;31.584;74.450;2023-05-09T04:58:56;98365.28;;;32.30;35.30
31239;BME280;17871;31.584;74.450;2023-05-09T05:01:25;98367.59;;;32.24;34.38
31239;BME280;17871;31.584;74.450;2023-05-09T05:03:55;98362.59;;;32.73;34.29
31239;BME280;17871;31.584;74.450;2023-05-09T05:06:24;98361.50;;;33.17;35.13
31239;BME280;17871;31.584;74.450;2023-05-09T05:08:54;98362.94;;;32.80;34.04
31239;BME280;17871;31.584;74.450;2023-05-09T05:11:23;98361.41;;;33.08;34.91
31239;BME280;17871;31.584;74.450;2023-05-09T05:13:52;98365.53;;;33.12;32.51
31239;BME280;17871;31.584;74.450;2023-05-09T05:16:22;98367.91;;;33.15;33.46
31239;BME280;17871;31.584;74.450;2023-05-09T05:18:51;98367.78;;;33.47;33.26
31239;BME280;17871;31.584;74.450;2023-05-09T05:21:22;98366.88;;;33.36;33.76
31239;BME280;17871;31.584;74.450;2023-05-09T05:23:51;98355.06;;;33.61;32.34
31239;BME280;17871;31.584;74.450;2023-05-09T05:26:20;98372.38;;;33.65;32.13
31239;BME280;17871;31.584;74.450;2023-05-09T05:28:49;98362.25;;;33.59;31.79
31239;BME280;17871;31.584;74.450;2023-05-09T05:31:24;98369.88;;;33.53;32.27
31239;BME280;17871;31.584;74.450;2023-05-09T05:33:53;98370.97;;;33.61;31.40
31239;BME280;17871;31.584;74.450;2023-05-09T05:36:22;98368.47;;;33.79;32.21
31239;BME280;17871;31.584;74.450;2023-05-09T05:38:51;98364.84;;;33.70;31.89
31239;BME280;17871;31.584;74.450;2023-05-09T05:41:20;98371.09;;;33.69;28.84
31239;BME280;17871;31.584;74.450;2023-05-09T05:43:50;98373.38;;;34.14;28.88
31239;BME280;17871;31.584;74.450;2023-05-09T05:46:21;98373.88;;;34.08;29.02
31239;BME280;17871;31.584;74.450;2023-05-09T05:48:50;98369.31;;;34.19;30.72
31239;BME280;17871;31.584;74.450;2023-05-09T05:51:20;98367.81;;;34.46;27.78
31239;BME280;17871;31.584;74.450;2023-05-09T05:53:50;98362.94;;;34.60;27.86
31239;BME280;17871;31.584;74.450;2023-05-09T05:56:20;98366.53;;;34.98;29.07
31239;BME280;17871;31.584;74.450;2023-05-09T05:58:50;98370.34;;;34.37;28.85
31239;BME280;17871;31.584;74.450;2023-05-09T06:01:19;98367.97;;;34.63;30.08
31239;BME280;17871;31.584;74.450;2023-05-09T06:03:48;98370.75;;;34.71;27.90
31239;BME280;17871;31.584;74.450;2023-05-09T06:06:28;98365.97;;;35.04;28.41
31239;BME280;17871;31.584;74.450;2023-05-09T06:08:58;98362.94;;;34.79;27.30
31239;BME280;17871;31.584;74.450;2023-05-09T06:11:29;98359.03;;;34.83;28.05
31239;BME280;17871;31.584;74.450;2023-05-09T06:14:00;98358.03;;;34.94;28.03
31239;BME280;17871;31.584;74.450;2023-05-09T06:16:29;98360.84;;;34.73;28.12
31239;BME280;17871;31.584;74.450;2023-05-09T06:18:59;98356.09;;;34.86;27.51
31239;BME280;17871;31.584;74.450;2023-05-09T06:21:28;98356.88;;;35.06;28.15
31239;BME280;17871;31.584;74.450;2023-05-09T06:23:57;98357.72;;;35.07;27.96
31239;BME280;17871;31.584;74.450;2023-05-09T06:26:36;98364.44;;;35.11;27.44
31239;BME280;17871;31.584;74.450;2023-05-09T06:29:05;98354.94;;;34.99;27.72
31239;BME280;17871;31.584;74.450;2023-05-09T06:31:35;98359.66;;;35.05;26.91
31239;BME280;17871;31.584;74.450;2023-05-09T06:34:06;98347.16;;;35.34;27.19
31239;BME280;17871;31.584;74.450;2023-05-09T06:36:38;98352.72;;;35.13;26.52
31239;BME280;17871;31.584;74.450;2023-05-09T06:39:09;98352.97;;;35.20;26.98
31239;BME280;17871;31.584;74.450;2023-05-09T06:41:38;98348.38;;;35.49;26.58
31239;BME280;17871;31.584;74.450;2023-05-09T06:44:08;98350.91;;;35.41;26.67
31239;BME280;17871;31.584;74.450;2023-05-09T06:46:37;98341.84;;;35.71;26.94
31239;BME280;17871;31.584;74.450;2023-05-09T06:49:06;98335.69;;;35.70;26.78
31239;BME280;17871;31.584;74.450;2023-05-09T06:51:35;98343.59;;;35.62;26.45
31239;BME280;17871;31.584;74.450;2023-05-09T06:54:04;98338.16;;;35.81;25.57
31239;BME280;17871;31.584;74.450;2023-05-09T06:56:33;98338.78;;;36.20;25.83
31239;BME280;17871;31.584;74.450;2023-05-09T06:59:04;98331.72;;;36.29;25.19
31239;BME280;17871;31.584;74.450;2023-05-09T07:01:41;98326.00;;;36.59;25.03
31239;BME280;17871;31.584;74.450;2023-05-09T07:04:11;98331.97;;;35.63;24.92
31239;BME280;17871;31.584;74.450;2023-05-09T07:06:40;98335.50;;;36.09;25.98
31239;BME280;17871;31.584;74.450;2023-05-09T07:09:16;98330.56;;;35.86;23.25
31239;BME280;17871;31.584;74.450;2023-05-09T07:11:57;98329.06;;;36.29;22.68
31239;BME280;17871;31.584;74.450;2023-05-09T07:14:34;98320.38;;;36.45;22.71
31239;BME280;17871;31.584;74.450;2023-05-09T07:17:11;98329.00;;;36.38;21.61
31239;BME280;17871;31.584;74.450;2023-05-09T07:19:52;98320.78;;;36.32;21.68
31239;BME280;17871;31.584;74.450;2023-05-09T07:22:21;98320.91;;;36.30;22.11
31239;BME280;17871;31.584;74.450;2023-05-09T07:24:53;98315.94;;;36.53;21.18
31239;BME280;17871;31.584;74.450;2023-05-09T07:27:36;98310.41;;;36.64;20.77
31239;BME280;17871;31.584;74.450;2023-05-09T07:30:11;98309.47;;;36.73;21.55
31239;BME280;17871;31.584;74.450;2023-05-09T07:32:41;98309.66;;;36.98;21.39
31239;BME280;17871;31.584;74.450;2023-05-09T07:35:10;98301.88;;;36.78;20.35
31239;BME280;17871;31.584;74.450;2023-05-09T07:37:40;98312.31;;;36.98;20.84
31239;BME280;17871;31.584;74.450;2023-05-09T07:40:09;98307.25;;;36.86;19.73
31239;BME280;17871;31.584;74.450;2023-05-09T07:42:39;98295.19;;;36.74;20.83
31239;BME280;17871;31.584;74.450;2023-05-09T07:45:08;98304.63;;;36.51;20.38
31239;BME280;17871;31.584;74.450;2023-05-09T07:47:38;98293.66;;;36.98;21.30
31239;BME280;17871;31.584;74.450;2023-05-09T07:50:07;98292.00;;;36.97;21.09
31239;BME280;17871;31.584;74.450;2023-05-09T07:52:37;98302.63;;;37.14;21.11
31239;BME280;17871;31.584;74.450;2023-05-09T07:55:06;98301.50;;;36.73;19.60
31239;BME280;17871;31.584;74.450;2023-05-09T07:57:35;98300.75;;;36.89;20.34
31239;BME280;17871;31.584;74.450;2023-05-09T08:00:04;98306.16;;;36.97;20.46
31239;BME280;17871;31.584;74.450;2023-05-09T08:02:39;98291.38;;;36.59;19.61
31239;BME280;17871;31.584;74.450;2023-05-09T08:05:09;98283.56;;;36.58;19.38
31239;BME280;17871;31.584;74.450;2023-05-09T08:07:41;98287.06;;;37.02;18.87
31239;BME280;17871;31.584;74.450;2023-05-09T08:10:10;98283.66;;;36.91;19.58
31239;BME280;17871;31.584;74.450;2023-05-09T08:12:39;98286.34;;;37.00;17.16
31239;BME280;17871;31.584;74.450;2023-05-09T08:15:08;98275.53;;;37.27;16.90
31239;BME280;17871;31.584;74.450;2023-05-09T08:17:38;98273.66;;;37.19;17.37
31239;BME280;17871;31.584;74.450;2023-05-09T08:20:07;98281.13;;;37.16;16.45
31239;BME280;17871;31.584;74.450;2023-05-09T08:22:38;98287.16;;;37.18;16.58
31239;BME280;17871;31.584;74.450;2023-05-09T08:25:07;98277.69;;;37.65;16.69
31239;BME280;17871;31.584;74.450;2023-05-09T08:27:37;98269.88;;;37.72;16.52
31239;BME280;17871;31.584;74.450;2023-05-09T08:30:06;98276.88;;;37.31;17.17
31239;BME280;17871;31.584;74.450;2023-05-09T08:32:36;98261.88;;;37.64;17.26
31239;BME280;17871;31.584;74.450;2023-05-09T08:35:05;98262.66;;;37.14;16.25
31239;BME280;17871;31.584;74.450;2023-05-09T08:37:36;98256.50;;;37.22;16.99
31239;BME280;17871;31.584;74.450;2023-05-09T08:40:05;98251.03;;;37.31;16.93
31239;BME280;17871;31.584;74.450;2023-05-09T08:42:38;98250.53;;;37.28;17.13
31239;BME280;17871;31.584;74.450;2023-05-09T08:45:12;98251.22;;;37.38;17.36
31239;BME280;17871;31.584;74.450;2023-05-09T08:47:45;98244.69;;;37.24;17.70
31239;BME280;17871;31.584;74.450;2023-05-09T08:50:15;98243.81;;;37.16;16.73
31239;BME280;17871;31.584;74.450;2023-05-09T08:52:45;98241.75;;;37.43;17.25
31239;BME280;17871;31.584;74.450;2023-05-09T08:55:15;98243.34;;;37.20;17.70
31239;BME280;17871;31.584;74.450;2023-05-09T08:57:45;98228.69;;;37.24;17.71
31239;BME280;17871;31.584;74.450;2023-05-09T09:00:14;98234.09;;;37.40;18.09
31239;BME280;17871;31.584;74.450;2023-05-09T09:06:06;98225.97;;;37.50;18.62
31239;BME280;17871;31.584;74.450;2023-05-09T09:08:37;98226.38;;;37.29;19.12
31239;BME280;17871;31.584;74.450;2023-05-09T09:11:10;98224.31;;;37.49;19.24
31239;BME280;17871;31.584;74.450;2023-05-09T09:13:40;98227.22;;;37.30;18.83
31239;BME280;17871;31.584;74.450;2023-05-09T09:16:19;98229.69;;;37.31;19.12
31239;BME280;17871;31.584;74.450;2023-05-09T09:18:51;98229.84;;;37.22;18.97
31239;BME280;17871;31.584;74.450;2023-05-09T09:21:25;98224.56;;;37.38;19.37
31239;BME280;17871;31.584;74.450;2023-05-09T09:23:55;98208.16;;;37.51;19.50
31239;BME280;17871;31.584;74.450;2023-05-09T09:26:24;98213.50;;;37.25;19.74
31239;BME280;17871;31.584;74.450;2023-05-09T09:28:56;98208.97;;;37.09;19.62
31239;BME280;17871;31.584;74.450;2023-05-09T09:31:26;98206.16;;;37.11;19.31
31239;BME280;17871;31.584;74.450;2023-05-09T09:34:01;98200.50;;;37.22;19.38
31239;BME280;17871;31.584;74.450;2023-05-09T09:36:30;98207.78;;;37.04;19.90
31239;BME280;17871;31.584;74.450;2023-05-09T09:39:02;98196.94;;;37.05;20.70
31239;BME280;17871;31.584;74.450;2023-05-09T09:41:36;98202.38;;;36.96;19.91
31239;BME280;17871;31.584;74.450;2023-05-09T09:44:14;98186.06;;;36.99;19.85
31239;BME280;17871;31.584;74.450;2023-05-09T09:46:49;98193.38;;;37.30;20.57
31239;BME280;17871;31.584;74.450;2023-05-09T09:49:23;98188.47;;;37.10;20.33
31239;BME280;17871;31.584;74.450;2023-05-09T09:51:55;98173.16;;;37.12;21.26
31239;BME280;17871;31.584;74.450;2023-05-09T09:54:28;98186.97;;;37.07;20.68
31239;BME280;17871;31.584;74.450;2023-05-09T09:56:57;98186.78;;;37.01;20.82
31239;BME280;17871;31.584;74.450;2023-05-09T09:59:27;98176.03;;;36.84;19.87
31239;BME280;17871;31.584;74.450;2023-05-09T10:01:57;98175.84;;;36.86;19.91
31239;BME280;17871;31.584;74.450;2023-05-09T10:07:06;98168.50;;;36.80;20.50
31239;BME280;17871;31.584;74.450;2023-05-09T10:09:39;98169.28;;;36.72;20.26
31239;BME280;17871;31.584;74.450;2023-05-09T10:12:08;98168.16;;;36.83;20.91
31239;BME280;17871;31.584;74.450;2023-05-09T10:14:37;98173.16;;;36.78;20.82
31239;BME280;17871;31.584;74.450;2023-05-09T10:17:12;98167.31;;;36.74;20.94
31239;BME280;17871;31.584;74.450;2023-05-09T10:19:44;98178.09;;;36.65;21.85
31239;BME280;17871;31.584;74.450;2023-05-09T10:22:14;98163.22;;;36.62;21.44
31239;BME280;17871;31.584;74.450;2023-05-09T10:25:12;98162.44;;;36.70;20.58
31239;BME280;17871;31.584;74.450;2023-05-09T10:27:44;98163.22;;;36.36;20.46
31239;BME280;17871;31.584;74.450;2023-05-09T10:30:17;98153.66;;;36.77;20.68
31239;BME280;17871;31.584;74.450;2023-05-09T10:32:55;98148.94;;;36.63;21.54
31239;BME280;17871;31.584;74.450;2023-05-09T10:35:30;98147.25;;;36.36;20.82
31239;BME280;17871;31.584;74.450;2023-05-09T10:38:00;98151.44;;;36.39;21.01
31239;BME280;17871;31.584;74.450;2023-05-09T10:40:30;98145.69;;;36.52;21.97
31239;BME280;17871;31.584;74.450;2023-05-09T10:43:00;98142.44;;;36.40;21.40
31239;BME280;17871;31.584;74.450;2023-05-09T10:45:29;98147.75;;;36.14;21.19
31239;BME280;17871;31.584;74.450;2023-05-09T10:47:59;98148.50;;;36.24;21.68
31239;BME280;17871;31.584;74.450;2023-05-09T10:50:31;98142.13;;;36.43;22.19
31239;BME280;17871;31.584;74.450;2023-05-09T10:55:56;98144.44;;;36.38;21.22
31239;BME280;17871;31.584;74.450;2023-05-09T10:58:31;98143.19;;;36.24;22.42
31239;BME280;17871;31.584;74.450;2023-05-09T11:01:09;98143.53;;;36.29;22.67
31239;BME280;17871;31.584;74.450;2023-05-09T11:03:55;98129.94;;;36.58;22.31
31239;BME280;17871;31.584;74.450;2023-05-09T11:06:47;98138.16;;;36.47;21.08
31239;BME280;17871;31.584;74.450;2023-05-09T11:09:26;98133.50;;;36.49;21.75
31239;BME280;17871;31.584;74.450;2023-05-09T11:12:13;98139.13;;;36.38;21.63
31239;BME280;17871;31.584;74.450;2023-05-09T11:14:47;98128.66;;;36.45;22.08
31239;BME280;17871;31.584;74.450;2023-05-09T11:22:25;98121.03;;;36.24;22.42
31239;BME280;17871;31.584;74.450;2023-05-09T11:25:04;98114.78;;;36.33;22.02
31239;BME280;17871;31.584;74.450;2023-05-09T11:27:46;98125.69;;;36.48;22.03
31239;BME280;17871;31.584;74.450;2023-05-09T11:30:18;98119.19;;;36.42;22.40
31239;BME280;17871;31.584;74.450;2023-05-09T11:32:55;98128.81;;;36.43;21.25
31239;BME280;17871;31.584;74.450;2023-05-09T11:35:33;98119.50;;;36.39;21.29
31239;BME280;17871;31.584;74.450;2023-05-09T11:38:20;98121.94;;;36.58;21.26
31239;BME280;17871;31.584;74.450;2023-05-09T11:40:52;98124.75;;;36.57;21.82
31239;BME280;17871;31.584;74.450;2023-05-09T11:43:22;98121.53;;;36.53;21.36
31239;BME280;17871;31.584;74.450;2023-05-09T11:45:51;98123.78;;;36.58;21.06
31239;BME280;17871;31.584;74.450;2023-05-09T11:48:21;98126.78;;;36.37;21.28
31239;BME280;17871;31.584;74.450;2023-05-09T11:50:51;98124.97;;;36.37;20.82
31239;BME280;17871;31.584;74.450;2023-05-09T11:53:23;98122.34;;;36.46;21.49
31239;BME280;17871;31.584;74.450;2023-05-09T11:55:51;98132.09;;;36.37;21.07
31239;BME280;17871;31.584;74.450;2023-05-09T11:58:21;98128.25;;;36.31;21.95
31239;BME280;17871;31.584;74.450;2023-05-09T12:00:50;98138.06;;;36.31;21.71
31239;BME280;17871;31.584;74.450;2023-05-09T12:03:20;98126.53;;;36.05;21.54
31239;BME280;17871;31.584;74.450;2023-05-09T12:05:49;98128.81;;;36.00;21.77
31239;BME280;17871;31.584;74.450;2023-05-09T12:08:18;98139.09;;;35.95;22.00
31239;BME280;17871;31.584;74.450;2023-05-09T12:10:48;98126.13;;;35.91;22.47
31239;BME280;17871;31.584;74.450;2023-05-09T12:13:17;98129.63;;;35.92;21.74
31239;BME280;17871;31.584;74.450;2023-05-09T12:15:46;98122.47;;;35.92;22.49
31239;BME280;17871;31.584;74.450;2023-05-09T12:18:16;98131.44;;;35.91;21.85
31239;BME280;17871;31.584;74.450;2023-05-09T12:20:49;98119.31;;;35.97;22.74
31239;BME280;17871;31.584;74.450;2023-05-09T12:23:18;98132.22;;;35.66;22.86
31239;BME280;17871;31.584;74.450;2023-05-09T12:25:56;98133.25;;;35.73;23.17
31239;BME280;17871;31.584;74.450;2023-05-09T12:28:26;98129.00;;;35.45;23.23
31239;BME280;17871;31.584;74.450;2023-05-09T12:30:55;98130.88;;;35.35;24.30
31239;BME280;17871;31.584;74.450;2023-05-09T12:33:24;98131.19;;;35.32;23.54
31239;BME280;17871;31.584;74.450;2023-05-09T12:36:08;98124.91;;;35.33;22.63
31239;BME280;17871;31.584;74.450;2023-05-09T12:38:38;98125.69;;;35.16;23.60
31239;BME280;17871;31.584;74.450;2023-05-09T12:41:09;98122.84;;;35.27;23.43
31239;BME280;17871;31.584;74.450;2023-05-09T12:43:59;98125.94;;;35.22;24.34
31239;BME280;17871;31.584;74.450;2023-05-09T12:46:28;98136.47;;;35.14;24.28
31239;BME280;17871;31.584;74.450;2023-05-09T12:48:57;98132.28;;;35.12;24.57
31239;BME280;17871;31.584;74.450;2023-05-09T12:51:26;98135.38;;;35.07;24.50
31239;BME280;17871;31.584;74.450;2023-05-09T12:54:02;98135.13;;;35.10;24.76
31239;BME280;17871;31.584;74.450;2023-05-09T12:56:33;98131.88;;;34.79;24.44
31239;BME280;17871;31.584;74.450;2023-05-09T12:59:03;98138.38;;;34.67;24.82
31239;BME280;17871;31.584;74.450;2023-05-09T13:01:31;98137.84;;;34.54;25.24
31239;BME280;17871;31.584;74.450;2023-05-09T13:04:05;98136.75;;;34.47;25.13
31239;BME280;17871;31.584;74.450;2023-05-09T13:06:47;98135.88;;;34.56;25.17
31239;BME280;17871;31.584;74.450;2023-05-09T13:09:17;98155.06;;;34.40;25.44
31239;BME280;17871;31.584;74.450;2023-05-09T13:11:46;98147.41;;;34.28;26.05
31239;BME280;17871;31.584;74.450;2023-05-09T13:14:19;98144.38;;;34.13;25.63
31239;BME280;17871;31.584;74.450;2023-05-09T13:16:49;98147.13;;;34.02;25.88
31239;BME280;17871;31.584;74.450;2023-05-09T13:19:18;98145.47;;;34.01;25.78
31239;BME280;17871;31.584;74.450;2023-05-09T13:21:47;98152.03;;;33.87;25.61
31239;BME280;17871;31.584;74.450;2023-05-09T13:24:16;98153.00;;;33.86;26.37
31239;BME280;17871;31.584;74.450;2023-05-09T13:26:45;98153.97;;;33.85;26.40
31239;BME280;17871;31.584;74.450;2023-05-09T13:29:13;98153.56;;;33.80;26.47
31239;BME280;17871;31.584;74.450;2023-05-09T13:31:43;98148.28;;;33.71;26.11
31239;BME280;17871;31.584;74.450;2023-05-09T13:34:12;98156.78;;;33.65;26.63
31239;BME280;17871;31.584;74.450;2023-05-09T13:36:41;98151.78;;;33.62;26.63
31239;BME280;17871;31.584;74.450;2023-05-09T13:39:10;98162.47;;;33.51;26.77
31239;BME280;17871;31.584;74.450;2023-05-09T13:41:40;98158.56;;;33.45;26.42